sensor_id;sensor_type;location;lat;lon;timestamp;pressure;altitude;pressure_sealevel;temperature;humidity
30819;BME280;17546;42.674;23.284;2023-07-20T00:00:06;94434.38;;;31.32;37.35
30819;BME280;17546;42.674;23.284;2023-07-20T00:02:32;94421.91;;;31.25;37.28
30819;BME280;17546;42.674;23.284;2023-07-20T00:04:59;94427.63;;;31.09;37.77
30819;BME280;17546;42.674;23.284;2023-07-20T00:07:25;94422.31;;;31.33;37.19
30819;BME280;17546;42.674;23.284;2023-07-20T00:09:50;94416.75;;;31.37;37.42
30819;BME280;17546;42.674;23.284;2023-07-20T00:12:16;94413.78;;;31.19;36.87
30819;BME280;17546;42.674;23.284;2023-07-20T00:14:41;94420.06;;;31.16;37.54
30819;BME280;17546;42.674;23.284;2023-07-20T00:17:07;94441.66;;;31.35;38.27
30819;BME280;17546;42.674;23.284;2023-07-20T00:19:32;94435.66;;;31.13;36.35
30819;BME280;17546;42.674;23.284;2023-07-20T00:21:58;94437.41;;;31.20;36.03
30819;BME280;17546;42.674;23.284;2023-07-20T00:24:24;94440.94;;;31.34;36.02
30819;BME280;17546;42.674;23.284;2023-07-20T00:26:49;94440.78;;;31.46;36.91
30819;BME280;17546;42.674;23.284;2023-07-20T00:29:15;94413.25;;;31.23;36.84
30819;BME280;17546;42.674;23.284;2023-07-20T00:31:40;94428.50;;;31.43;37.40
30819;BME280;17546;42.674;23.284;2023-07-20T00:34:06;94452.38;;;31.66;37.40
30819;BME280;17546;42.674;23.284;2023-07-20T00:36:32;94459.69;;;31.69;37.97
30819;BME280;17546;42.674;23.284;2023-07-20T00:38:57;94450.66;;;31.59;38.11
30819;BME280;17546;42.674;23.284;2023-07-20T00:41:23;94421.50;;;31.46;37.91
30819;BME280;17546;42.674;23.284;2023-07-20T00:43:56;94438.16;;;31.68;37.14
30819;BME280;17546;42.674;23.284;2023-07-20T00:46:24;94441.78;;;31.84;36.85
30819;BME280;17546;42.674;23.284;2023-07-20T00:48:51;94409.31;;;31.62;37.08
30819;BME280;17546;42.674;23.284;2023-07-20T00:51:55;94427.38;;;31.82;37.41
30819;BME280;17546;42.674;23.284;2023-07-20T00:54:20;94404.41;;;31.64;37.43
30819;BME280;17546;42.674;23.284;2023-07-20T00:56:46;94418.03;;;31.82;37.10
30819;BME280;17546;42.674;23.284;2023-07-20T00:59:25;94398.50;;;31.60;37.91
30819;BME280;17546;42.674;23.284;2023-07-20T01:01:51;94399.41;;;31.33;37.08
30819;BME280;17546;42.674;23.284;2023-07-20T01:04:16;94416.13;;;31.55;36.43
30819;BME280;17546;42.674;23.284;2023-07-20T01:07:14;94422.03;;;31.59;36.42
30819;BME280;17546;42.674;23.284;2023-07-20T01:09:52;94435.13;;;31.64;37.17
30819;BME280;17546;42.674;23.284;2023-07-20T01:12:51;94437.00;;;31.73;37.66
30819;BME280;17546;42.674;23.284;2023-07-20T01:15:17;94430.78;;;31.63;37.64
30819;BME280;17546;42.674;23.284;2023-07-20T01:17:43;94384.00;;;31.40;37.75
30819;BME280;17546;42.674;23.284;2023-07-20T01:20:36;94427.75;;;31.59;37.62
30819;BME280;17546;42.674;23.284;2023-07-20T01:23:21;94431.72;;;31.52;37.65
30819;BME280;17546;42.674;23.284;2023-07-20T01:31:21;94434.31;;;31.45;37.41
30819;BME280;17546;42.674;23.284;2023-07-20T01:33:50;94442.03;;;31.27;37.40
30819;BME280;17546;42.674;23.284;2023-07-20T01:36:18;94436.03;;;31.37;38.27
30819;BME280;17546;42.674;23.284;2023-07-20T01:38:45;94404.91;;;30.97;38.21
30819;BME280;17546;42.674;23.284;2023-07-20T01:41:11;94418.97;;;31.23;38.00
30819;BME280;17546;42.674;23.284;2023-07-20T01:43:37;94430.91;;;31.49;38.33
30819;BME280;17546;42.674;23.284;2023-07-20T01:46:02;94423.44;;;31.58;37.93
30819;BME280;17546;42.674;23.284;2023-07-20T01:48:27;94429.69;;;31.54;38.32
30819;BME280;17546;42.674;23.284;2023-07-20T01:50:53;94432.94;;;31.62;37.91
30819;BME280;17546;42.674;23.284;2023-07-20T01:55:57;94362.94;;;30.86;38.65
30819;BME280;17546;42.674;23.284;2023-07-20T01:58:25;94350.28;;;30.91;37.97
30819;BME280;17546;42.674;23.284;2023-07-20T02:00:51;94340.63;;;30.98;37.80
30819;BME280;17546;42.674;23.284;2023-07-20T02:03:17;94368.50;;;31.14;37.96
30819;BME280;17546;42.674;23.284;2023-07-20T02:05:47;94344.56;;;30.91;38.12
30819;BME280;17546;42.674;23.284;2023-07-20T02:08:12;94353.63;;;31.01;37.96
30819;BME280;17546;42.674;23.284;2023-07-20T02:10:38;94364.81;;;31.11;38.61
30819;BME280;17546;42.674;23.284;2023-07-20T02:13:04;94313.59;;;30.85;38.58
30819;BME280;17546;42.674;23.284;2023-07-20T02:15:32;94433.09;;;31.50;38.35
30819;BME280;17546;42.674;23.284;2023-07-20T02:18:00;94362.50;;;31.07;38.46
30819;BME280;17546;42.674;23.284;2023-07-20T02:20:26;94365.06;;;31.01;38.74
30819;BME280;17546;42.674;23.284;2023-07-20T02:22:52;94437.81;;;31.44;38.73
30819;BME280;17546;42.674;23.284;2023-07-20T02:25:24;94354.75;;;30.94;38.94
30819;BME280;17546;42.674;23.284;2023-07-20T02:27:50;94357.88;;;31.00;38.04
30819;BME280;17546;42.674;23.284;2023-07-20T02:30:15;94341.00;;;30.91;37.92
30819;BME280;17546;42.674;23.284;2023-07-20T02:32:41;94341.78;;;30.77;38.34
30819;BME280;17546;42.674;23.284;2023-07-20T02:35:13;94332.09;;;30.68;38.09
30819;BME280;17546;42.674;23.284;2023-07-20T02:37:39;94344.53;;;30.75;37.95
30819;BME280;17546;42.674;23.284;2023-07-20T02:40:07;94318.16;;;30.45;38.11
30819;BME280;17546;42.674;23.284;2023-07-20T02:42:34;94371.47;;;30.70;38.28
30819;BME280;17546;42.674;23.284;2023-07-20T02:45:01;94414.88;;;30.96;38.50
30819;BME280;17546;42.674;23.284;2023-07-20T02:47:29;94343.59;;;30.55;38.71
30819;BME280;17546;42.674;23.284;2023-07-20T02:49:55;94319.97;;;30.38;39.14
30819;BME280;17546;42.674;23.284;2023-07-20T02:52:21;94301.97;;;30.06;39.44
30819;BME280;17546;42.674;23.284;2023-07-20T02:54:46;94308.25;;;30.18;39.28
30819;BME280;17546;42.674;23.284;2023-07-20T02:57:12;94302.22;;;30.26;39.06
30819;BME280;17546;42.674;23.284;2023-07-20T02:59:38;94340.94;;;30.59;38.93
30819;BME280;17546;42.674;23.284;2023-07-20T03:02:04;94339.00;;;30.63;38.82
30819;BME280;17546;42.674;23.284;2023-07-20T03:04:30;94294.38;;;30.26;38.30
30819;BME280;17546;42.674;23.284;2023-07-20T03:06:55;94358.94;;;30.77;38.55
30819;BME280;17546;42.674;23.284;2023-07-20T03:09:21;94395.16;;;31.02;38.68
30819;BME280;17546;42.674;23.284;2023-07-20T03:11:47;94306.53;;;30.41;38.22
30819;BME280;17546;42.674;23.284;2023-07-20T03:14:15;94302.06;;;30.08;38.23
30819;BME280;17546;42.674;23.284;2023-07-20T03:16:41;94341.75;;;30.02;38.74
30819;BME280;17546;42.674;23.284;2023-07-20T03:19:08;94370.63;;;30.38;39.00
30819;BME280;17546;42.674;23.284;2023-07-20T03:21:33;94323.78;;;29.99;38.61
30819;BME280;17546;42.674;23.284;2023-07-20T03:23:59;94321.47;;;29.96;38.94
30819;BME280;17546;42.674;23.284;2023-07-20T03:26:25;94349.53;;;30.15;38.84
30819;BME280;17546;42.674;23.284;2023-07-20T03:28:51;94340.06;;;29.97;39.85
30819;BME280;17546;42.674;23.284;2023-07-20T03:31:16;94359.28;;;30.10;39.57
30819;BME280;17546;42.674;23.284;2023-07-20T03:33:42;94327.16;;;29.96;39.83
30819;BME280;17546;42.674;23.284;2023-07-20T03:36:08;94327.72;;;29.78;39.64
30819;BME280;17546;42.674;23.284;2023-07-20T03:38:35;94316.25;;;29.35;40.40
30819;BME280;17546;42.674;23.284;2023-07-20T03:41:01;94338.72;;;29.56;40.55
30819;BME280;17546;42.674;23.284;2023-07-20T03:43:28;94395.19;;;29.85;41.03
30819;BME280;17546;42.674;23.284;2023-07-20T03:45:54;94348.88;;;29.18;41.82
30819;BME280;17546;42.674;23.284;2023-07-20T03:50:51;94363.38;;;29.77;40.58
30819;BME280;17546;42.674;23.284;2023-07-20T03:53:17;94336.41;;;29.80;39.68
30819;BME280;17546;42.674;23.284;2023-07-20T03:55:47;94343.69;;;29.83;39.77
30819;BME280;17546;42.674;23.284;2023-07-20T03:58:14;94330.69;;;29.66;39.63
30819;BME280;17546;42.674;23.284;2023-07-20T04:00:40;94348.75;;;29.99;39.13
30819;BME280;17546;42.674;23.284;2023-07-20T04:03:06;94345.38;;;29.89;39.42
30819;BME280;17546;42.674;23.284;2023-07-20T04:05:32;94325.63;;;29.79;38.96
30819;BME280;17546;42.674;23.284;2023-07-20T04:07:58;94320.97;;;29.85;38.94
30819;BME280;17546;42.674;23.284;2023-07-20T04:10:27;94327.72;;;29.92;38.77
30819;BME280;17546;42.674;23.284;2023-07-20T04:12:52;94322.25;;;29.69;39.03
30819;BME280;17546;42.674;23.284;2023-07-20T04:15:18;94405.63;;;29.95;39.77
30819;BME280;17546;42.674;23.284;2023-07-20T04:17:47;94335.16;;;30.13;39.03
30819;BME280;17546;42.674;23.284;2023-07-20T04:20:13;94372.50;;;30.47;38.73
30819;BME280;17546;42.674;23.284;2023-07-20T04:22:38;94338.19;;;30.31;38.83
30819;BME280;17546;42.674;23.284;2023-07-20T04:25:04;94299.81;;;29.91;39.00
30819;BME280;17546;42.674;23.284;2023-07-20T04:27:30;94363.44;;;29.93;39.96
30819;BME280;17546;42.674;23.284;2023-07-20T04:29:58;94338.88;;;30.02;40.05
30819;BME280;17546;42.674;23.284;2023-07-20T04:32:27;94343.38;;;30.21;39.67
30819;BME280;17546;42.674;23.284;2023-07-20T04:34:53;94334.63;;;30.17;39.85
30819;BME280;17546;42.674;23.284;2023-07-20T04:39:54;94347.53;;;30.47;39.45
30819;BME280;17546;42.674;23.284;2023-07-20T04:42:19;94360.38;;;30.62;39.52
30819;BME280;17546;42.674;23.284;2023-07-20T04:44:45;94296.94;;;30.20;39.27
30819;BME280;17546;42.674;23.284;2023-07-20T04:47:11;94300.22;;;30.28;38.47
30819;BME280;17546;42.674;23.284;2023-07-20T04:49:39;94329.19;;;30.37;38.75
30819;BME280;17546;42.674;23.284;2023-07-20T04:52:05;94362.25;;;30.72;38.81
30819;BME280;17546;42.674;23.284;2023-07-20T04:54:35;94323.16;;;30.60;38.96
30819;BME280;17546;42.674;23.284;2023-07-20T04:57:01;94307.66;;;30.50;38.66
30819;BME280;17546;42.674;23.284;2023-07-20T04:59:26;94362.69;;;30.96;38.60
30819;BME280;17546;42.674;23.284;2023-07-20T05:01:52;94307.84;;;30.54;38.31
30819;BME280;17546;42.674;23.284;2023-07-20T05:04:18;94316.13;;;30.63;38.44
30819;BME280;17546;42.674;23.284;2023-07-20T05:06:43;94335.94;;;30.89;38.52
30819;BME280;17546;42.674;23.284;2023-07-20T05:09:09;94389.53;;;31.36;38.45
30819;BME280;17546;42.674;23.284;2023-07-20T05:11:36;94386.09;;;31.24;38.40
30819;BME280;17546;42.674;23.284;2023-07-20T05:14:02;94377.09;;;31.14;38.05
30819;BME280;17546;42.674;23.284;2023-07-20T05:16:27;94387.16;;;30.85;37.35
30819;BME280;17546;42.674;23.284;2023-07-20T05:18:53;94392.84;;;30.69;37.86
30819;BME280;17546;42.674;23.284;2023-07-20T05:21:22;94398.16;;;30.45;38.38
30819;BME280;17546;42.674;23.284;2023-07-20T05:23:47;94388.88;;;30.60;38.02
30819;BME280;17546;42.674;23.284;2023-07-20T05:26:13;94362.97;;;30.56;38.73
30819;BME280;17546;42.674;23.284;2023-07-20T05:28:38;94388.44;;;30.82;38.92
30819;BME280;17546;42.674;23.284;2023-07-20T05:31:03;94411.38;;;30.98;38.01
30819;BME280;17546;42.674;23.284;2023-07-20T05:33:29;94398.03;;;30.73;38.27
30819;BME280;17546;42.674;23.284;2023-07-20T05:35:54;94388.41;;;30.66;37.67
30819;BME280;17546;42.674;23.284;2023-07-20T05:38:20;94407.41;;;30.89;37.87
30819;BME280;17546;42.674;23.284;2023-07-20T05:40:45;94420.59;;;30.96;38.07
30819;BME280;17546;42.674;23.284;2023-07-20T05:43:12;94420.44;;;31.08;38.25
30819;BME280;17546;42.674;23.284;2023-07-20T05:45:41;94406.75;;;31.06;36.95
30819;BME280;17546;42.674;23.284;2023-07-20T05:48:06;94400.59;;;31.12;36.98
30819;BME280;17546;42.674;23.284;2023-07-20T05:50:34;94402.91;;;31.16;37.20
30819;BME280;17546;42.674;23.284;2023-07-20T05:53:00;94420.81;;;31.32;36.69
30819;BME280;17546;42.674;23.284;2023-07-20T05:55:25;94421.41;;;30.69;37.62
30819;BME280;17546;42.674;23.284;2023-07-20T05:57:51;94416.00;;;31.21;37.09
30819;BME280;17546;42.674;23.284;2023-07-20T06:00:33;94375.53;;;30.81;37.54
30819;BME280;17546;42.674;23.284;2023-07-20T06:02:58;94414.94;;;30.82;37.07
30819;BME280;17546;42.674;23.284;2023-07-20T06:05:24;94422.56;;;31.07;36.92
30819;BME280;17546;42.674;23.284;2023-07-20T06:08:16;94422.75;;;31.12;36.29
30819;BME280;17546;42.674;23.284;2023-07-20T06:10:41;94387.75;;;30.97;36.40
30819;BME280;17546;42.674;23.284;2023-07-20T06:13:07;94416.59;;;31.33;36.39
30819;BME280;17546;42.674;23.284;2023-07-20T06:23:01;94395.34;;;31.54;36.42
30819;BME280;17546;42.674;23.284;2023-07-20T06:25:26;94398.94;;;31.55;36.24
30819;BME280;17546;42.674;23.284;2023-07-20T06:27:52;94390.69;;;31.79;36.72
30819;BME280;17546;42.674;23.284;2023-07-20T06:40:33;94372.66;;;32.26;35.57
30819;BME280;17546;42.674;23.284;2023-07-20T06:42:58;94359.47;;;32.37;36.34
30819;BME280;17546;42.674;23.284;2023-07-20T06:52:21;94380.53;;;33.35;34.35
30819;BME280;17546;42.674;23.284;2023-07-20T06:54:46;94373.75;;;33.46;33.24
30819;BME280;17546;42.674;23.284;2023-07-20T07:04:04;94417.16;;;33.94;32.69
30819;BME280;17546;42.674;23.284;2023-07-20T07:06:31;94416.56;;;33.58;32.38
30819;BME280;17546;42.674;23.284;2023-07-20T07:54:13;94418.50;;;35.70;31.44
30819;BME280;17546;42.674;23.284;2023-07-20T07:56:38;94418.84;;;35.82;30.91
30819;BME280;17546;42.674;23.284;2023-07-20T08:09:53;94464.56;;;35.22;31.85
30819;BME280;17546;42.674;23.284;2023-07-20T08:12:19;94427.25;;;34.80;32.35
30819;BME280;17546;42.674;23.284;2023-07-20T08:14:45;94426.72;;;34.21;33.24
30819;BME280;17546;42.674;23.284;2023-07-20T08:17:10;94419.88;;;33.90;34.20
30819;BME280;17546;42.674;23.284;2023-07-20T08:19:37;94468.28;;;34.18;33.41
30819;BME280;17546;42.674;23.284;2023-07-20T08:22:07;94463.91;;;33.97;32.75
30819;BME280;17546;42.674;23.284;2023-07-20T08:24:32;94448.06;;;33.38;33.09
30819;BME280;17546;42.674;23.284;2023-07-20T08:27:07;94435.94;;;33.78;32.50
30819;BME280;17546;42.674;23.284;2023-07-20T08:29:36;94458.91;;;33.78;32.36
30819;BME280;17546;42.674;23.284;2023-07-20T08:32:03;94372.06;;;32.63;32.85
30819;BME280;17546;42.674;23.284;2023-07-20T08:34:30;94470.38;;;32.16;32.98
30819;BME280;17546;42.674;23.284;2023-07-20T08:36:57;94472.94;;;32.78;32.79
30819;BME280;17546;42.674;23.284;2023-07-20T08:39:23;94456.16;;;32.88;31.91
30819;BME280;17546;42.674;23.284;2023-07-20T08:42:11;94477.47;;;33.74;31.40
30819;BME280;17546;42.674;23.284;2023-07-20T08:44:39;94473.44;;;33.26;32.19
30819;BME280;17546;42.674;23.284;2023-07-20T08:47:06;94456.56;;;33.72;31.11
30819;BME280;17546;42.674;23.284;2023-07-20T08:49:48;94473.47;;;34.04;30.19
30819;BME280;17546;42.674;23.284;2023-07-20T08:52:14;94464.94;;;33.28;31.55
30819;BME280;17546;42.674;23.284;2023-07-20T08:54:39;94471.06;;;33.02;32.07
30819;BME280;17546;42.674;23.284;2023-07-20T09:24:33;94436.81;;;34.22;30.25
30819;BME280;17546;42.674;23.284;2023-07-20T09:27:01;94437.56;;;34.23;30.26
30819;BME280;17546;42.674;23.284;2023-07-20T09:33:35;94440.41;;;34.65;29.10
30819;BME280;17546;42.674;23.284;2023-07-20T09:36:04;94437.47;;;34.85;28.71
30819;BME280;17546;42.674;23.284;2023-07-20T09:38:29;94433.81;;;35.52;28.27
30819;BME280;17546;42.674;23.284;2023-07-20T09:48:06;94431.19;;;35.12;28.78
30819;BME280;17546;42.674;23.284;2023-07-20T09:51:01;94433.50;;;34.52;29.23
30819;BME280;17546;42.674;23.284;2023-07-20T09:53:33;94396.19;;;34.98;28.08
30819;BME280;17546;42.674;23.284;2023-07-20T09:55:59;94333.41;;;34.02;27.41
30819;BME280;17546;42.674;23.284;2023-07-20T09:58:28;94382.81;;;34.41;28.02
30819;BME280;17546;42.674;23.284;2023-07-20T10:04:40;94405.81;;;34.41;28.15
30819;BME280;17546;42.674;23.284;2023-07-20T10:07:10;94396.59;;;34.02;28.47
30819;BME280;17546;42.674;23.284;2023-07-20T10:26:18;94387.06;;;33.18;29.63
30819;BME280;17546;42.674;23.284;2023-07-20T10:28:44;94384.97;;;33.58;29.58
30819;BME280;17546;42.674;23.284;2023-07-20T10:31:11;94390.38;;;34.10;29.00
30819;BME280;17546;42.674;23.284;2023-07-20T10:34:15;94387.69;;;34.14;28.64
30819;BME280;17546;42.674;23.284;2023-07-20T10:36:44;94404.75;;;34.52;28.40
30819;BME280;17546;42.674;23.284;2023-07-20T11:07:38;94316.13;;;34.90;28.40
30819;BME280;17546;42.674;23.284;2023-07-20T11:10:13;94302.88;;;35.05;28.40
30819;BME280;17546;42.674;23.284;2023-07-20T11:13:17;94320.25;;;35.33;28.38
30819;BME280;17546;42.674;23.284;2023-07-20T11:21:54;94236.38;;;35.45;28.25
30819;BME280;17546;42.674;23.284;2023-07-20T11:24:20;94307.16;;;36.09;28.00
30819;BME280;17546;42.674;23.284;2023-07-20T11:37:05;94289.53;;;37.17;27.42
30819;BME280;17546;42.674;23.284;2023-07-20T11:39:31;94292.72;;;37.32;26.89
30819;BME280;17546;42.674;23.284;2023-07-20T11:52:15;94254.06;;;36.78;26.50
30819;BME280;17546;42.674;23.284;2023-07-20T12:15:45;94247.97;;;38.10;24.73
30819;BME280;17546;42.674;23.284;2023-07-20T12:18:10;94237.06;;;37.66;25.10
30819;BME280;17546;42.674;23.284;2023-07-20T12:21:13;94252.66;;;38.31;23.71
30819;BME280;17546;42.674;23.284;2023-07-20T12:23:39;94257.47;;;38.63;24.41
30819;BME280;17546;42.674;23.284;2023-07-20T12:26:09;94237.63;;;37.98;24.36
30819;BME280;17546;42.674;23.284;2023-07-20T12:32:01;94235.97;;;37.85;23.40
30819;BME280;17546;42.674;23.284;2023-07-20T12:34:26;94232.38;;;38.29;23.35
30819;BME280;17546;42.674;23.284;2023-07-20T12:36:52;94209.59;;;38.05;22.29
30819;BME280;17546;42.674;23.284;2023-07-20T12:39:17;94237.44;;;37.86;21.62
30819;BME280;17546;42.674;23.284;2023-07-20T12:55:08;94215.59;;;37.77;22.42
30819;BME280;17546;42.674;23.284;2023-07-20T12:57:35;94228.69;;;37.82;22.52
30819;BME280;17546;42.674;23.284;2023-07-20T13:00:19;94228.75;;;38.29;22.38
30819;BME280;17546;42.674;23.284;2023-07-20T13:02:45;94224.94;;;38.64;22.34
30819;BME280;17546;42.674;23.284;2023-07-20T13:05:10;94216.41;;;38.73;22.46
30819;BME280;17546;42.674;23.284;2023-07-20T13:18:08;94213.16;;;37.61;23.30
30819;BME280;17546;42.674;23.284;2023-07-20T13:20:34;94217.22;;;37.86;23.92
30819;BME280;17546;42.674;23.284;2023-07-20T13:29:52;94209.47;;;38.43;23.37
30819;BME280;17546;42.674;23.284;2023-07-20T13:32:17;94208.66;;;37.94;23.29
30819;BME280;17546;42.674;23.284;2023-07-20T13:34:46;94185.84;;;37.30;23.61
30819;BME280;17546;42.674;23.284;2023-07-20T13:54:58;94199.06;;;37.41;25.30
30819;BME280;17546;42.674;23.284;2023-07-20T13:57:23;94195.94;;;37.29;24.99
30819;BME280;17546;42.674;23.284;2023-07-20T13:59:49;94191.50;;;37.23;24.79
30819;BME280;17546;42.674;23.284;2023-07-20T14:15:52;94190.22;;;37.33;23.28
30819;BME280;17546;42.674;23.284;2023-07-20T14:18:18;94189.78;;;37.08;23.23
30819;BME280;17546;42.674;23.284;2023-07-20T14:20:59;94200.47;;;37.03;23.85
30819;BME280;17546;42.674;23.284;2023-07-20T14:23:27;94169.28;;;36.94;23.59
30819;BME280;17546;42.674;23.284;2023-07-20T14:25:52;94199.56;;;37.29;23.93
30819;BME280;17546;42.674;23.284;2023-07-20T14:35:10;94191.56;;;36.57;25.14
30819;BME280;17546;42.674;23.284;2023-07-20T14:37:35;94173.63;;;36.28;25.32
30819;BME280;17546;42.674;23.284;2023-07-20T14:40:22;94194.22;;;36.79;25.47
30819;BME280;17546;42.674;23.284;2023-07-20T14:42:47;94197.09;;;36.79;25.77
30819;BME280;17546;42.674;23.284;2023-07-20T14:45:13;94204.53;;;36.90;25.29
30819;BME280;17546;42.674;23.284;2023-07-20T14:47:50;94192.50;;;36.03;26.32
30819;BME280;17546;42.674;23.284;2023-07-20T14:50:19;94186.25;;;36.13;26.01
30819;BME280;17546;42.674;23.284;2023-07-20T14:52:45;94204.56;;;36.58;26.14
30819;BME280;17546;42.674;23.284;2023-07-20T14:55:43;94201.94;;;36.36;25.84
30819;BME280;17546;42.674;23.284;2023-07-20T14:58:09;94207.78;;;36.72;25.76
30819;BME280;17546;42.674;23.284;2023-07-20T15:00:35;94173.09;;;36.36;26.95
30819;BME280;17546;42.674;23.284;2023-07-20T15:03:00;94199.13;;;36.72;26.65
30819;BME280;17546;42.674;23.284;2023-07-20T15:05:25;94193.50;;;36.78;26.79
30819;BME280;17546;42.674;23.284;2023-07-20T15:08:21;94214.03;;;36.60;26.62
30819;BME280;17546;42.674;23.284;2023-07-20T15:10:48;94182.75;;;36.16;27.17
30819;BME280;17546;42.674;23.284;2023-07-20T15:13:14;94178.72;;;36.30;26.76
30819;BME280;17546;42.674;23.284;2023-07-20T15:15:40;94184.72;;;36.72;26.46
30819;BME280;17546;42.674;23.284;2023-07-20T15:18:05;94188.63;;;36.20;26.64
30819;BME280;17546;42.674;23.284;2023-07-20T15:20:31;94188.97;;;36.07;27.06
30819;BME280;17546;42.674;23.284;2023-07-20T15:23:14;94194.22;;;36.14;27.47
30819;BME280;17546;42.674;23.284;2023-07-20T15:25:40;94222.97;;;36.43;26.72
30819;BME280;17546;42.674;23.284;2023-07-20T15:28:06;94198.44;;;36.74;26.57
30819;BME280;17546;42.674;23.284;2023-07-20T15:30:31;94195.34;;;36.64;26.30
30819;BME280;17546;42.674;23.284;2023-07-20T15:32:56;94212.47;;;36.90;26.95
30819;BME280;17546;42.674;23.284;2023-07-20T15:35:27;94187.38;;;36.62;26.10
30819;BME280;17546;42.674;23.284;2023-07-20T15:37:53;94220.22;;;36.81;26.54
30819;BME280;17546;42.674;23.284;2023-07-20T15:40:18;94224.81;;;36.60;27.06
30819;BME280;17546;42.674;23.284;2023-07-20T15:42:51;94227.66;;;37.27;26.56
30819;BME280;17546;42.674;23.284;2023-07-20T15:45:17;94229.13;;;37.28;26.65
30819;BME280;17546;42.674;23.284;2023-07-20T15:47:42;94240.19;;;37.41;26.08
30819;BME280;17546;42.674;23.284;2023-07-20T15:50:21;94249.16;;;37.19;26.19
30819;BME280;17546;42.674;23.284;2023-07-20T15:52:47;94208.94;;;36.93;25.81
30819;BME280;17546;42.674;23.284;2023-07-20T15:55:12;94230.50;;;36.56;26.01
30819;BME280;17546;42.674;23.284;2023-07-20T15:58:04;94250.97;;;36.38;26.34
30819;BME280;17546;42.674;23.284;2023-07-20T16:00:30;94249.56;;;35.80;27.30
30819;BME280;17546;42.674;23.284;2023-07-20T16:02:55;94249.16;;;35.92;27.29
30819;BME280;17546;42.674;23.284;2023-07-20T16:05:24;94251.75;;;36.10;27.32
30819;BME280;17546;42.674;23.284;2023-07-20T16:07:51;94253.91;;;35.82;27.78
30819;BME280;17546;42.674;23.284;2023-07-20T16:10:16;94267.38;;;36.29;27.45
30819;BME280;17546;42.674;23.284;2023-07-20T16:12:59;94260.88;;;35.72;28.09
30819;BME280;17546;42.674;23.284;2023-07-20T16:15:25;94271.09;;;35.77;27.90
30819;BME280;17546;42.674;23.284;2023-07-20T16:17:51;94245.38;;;36.14;27.29
30819;BME280;17546;42.674;23.284;2023-07-20T16:20:39;94283.38;;;36.36;26.57
30819;BME280;17546;42.674;23.284;2023-07-20T16:23:05;94272.25;;;35.94;27.46
30819;BME280;17546;42.674;23.284;2023-07-20T16:25:31;94263.13;;;35.76;27.24
30819;BME280;17546;42.674;23.284;2023-07-20T16:27:59;94285.91;;;36.22;26.87
30819;BME280;17546;42.674;23.284;2023-07-20T16:30:27;94258.13;;;36.07;27.16
30819;BME280;17546;42.674;23.284;2023-07-20T16:32:53;94282.78;;;36.12;27.69
30819;BME280;17546;42.674;23.284;2023-07-20T16:35:21;94277.44;;;35.20;27.57
30819;BME280;17546;42.674;23.284;2023-07-20T16:37:47;94272.78;;;34.84;28.45
30819;BME280;17546;42.674;23.284;2023-07-20T16:40:18;94292.78;;;35.04;28.05
30819;BME280;17546;42.674;23.284;2023-07-20T16:42:46;94263.25;;;34.09;29.05
30819;BME280;17546;42.674;23.284;2023-07-20T16:45:11;94293.94;;;34.25;29.28
30819;BME280;17546;42.674;23.284;2023-07-20T16:47:38;94295.94;;;34.42;29.00
30819;BME280;17546;42.674;23.284;2023-07-20T16:50:09;94300.78;;;34.60;29.14
30819;BME280;17546;42.674;23.284;2023-07-20T16:52:35;94307.44;;;35.12;28.41
30819;BME280;17546;42.674;23.284;2023-07-20T16:55:01;94304.84;;;34.98;28.86
30819;BME280;17546;42.674;23.284;2023-07-20T16:57:29;94304.72;;;34.94;28.67
30819;BME280;17546;42.674;23.284;2023-07-20T16:59:55;94296.59;;;34.87;28.71
30819;BME280;17546;42.674;23.284;2023-07-20T17:02:20;94269.78;;;34.34;29.28
30819;BME280;17546;42.674;23.284;2023-07-20T17:04:49;94277.66;;;34.55;29.09
30819;BME280;17546;42.674;23.284;2023-07-20T17:07:14;94302.47;;;34.91;28.77
30819;BME280;17546;42.674;23.284;2023-07-20T17:09:40;94312.19;;;35.28;28.82
30819;BME280;17546;42.674;23.284;2023-07-20T17:12:06;94314.00;;;35.41;28.47
30819;BME280;17546;42.674;23.284;2023-07-20T17:14:33;94301.59;;;35.10;28.41
30819;BME280;17546;42.674;23.284;2023-07-20T17:17:01;94295.41;;;35.20;28.24
30819;BME280;17546;42.674;23.284;2023-07-20T17:19:27;94305.94;;;34.87;28.61
30819;BME280;17546;42.674;23.284;2023-07-20T17:21:52;94320.03;;;34.55;28.74
30819;BME280;17546;42.674;23.284;2023-07-20T17:24:21;94330.28;;;34.16;29.86
30819;BME280;17546;42.674;23.284;2023-07-20T17:26:47;94330.28;;;34.16;29.53
30819;BME280;17546;42.674;23.284;2023-07-20T17:29:12;94329.88;;;33.84;30.02
30819;BME280;17546;42.674;23.284;2023-07-20T17:31:37;94339.56;;;34.36;29.56
30819;BME280;17546;42.674;23.284;2023-07-20T17:34:03;94304.56;;;34.20;29.24
30819;BME280;17546;42.674;23.284;2023-07-20T17:36:29;94316.56;;;34.58;28.83
30819;BME280;17546;42.674;23.284;2023-07-20T17:38:55;94339.59;;;34.83;29.05
30819;BME280;17546;42.674;23.284;2023-07-20T17:41:20;94341.19;;;34.88;29.01
30819;BME280;17546;42.674;23.284;2023-07-20T17:43:52;94313.13;;;34.86;28.72
30819;BME280;17546;42.674;23.284;2023-07-20T17:46:18;94304.06;;;34.50;28.86
30819;BME280;17546;42.674;23.284;2023-07-20T17:48:43;94333.59;;;34.52;29.04
30819;BME280;17546;42.674;23.284;2023-07-20T17:51:09;94345.72;;;34.71;28.85
30819;BME280;17546;42.674;23.284;2023-07-20T17:53:37;94343.50;;;34.69;28.88
30819;BME280;17546;42.674;23.284;2023-07-20T17:56:03;94349.72;;;34.62;28.97
30819;BME280;17546;42.674;23.284;2023-07-20T17:58:29;94323.84;;;33.95;29.50
30819;BME280;17546;42.674;23.284;2023-07-20T18:01:00;94354.44;;;34.29;28.89
30819;BME280;17546;42.674;23.284;2023-07-20T18:03:26;94363.78;;;34.29;28.99